Terminal Aerodrome Forecast
Issued by NWS Louisville, KY

Home | Current Version | Previous Version | Text Only | Print | Product List | Glossary On
Versions: 1 2 3 4 5 6 7 8 9 10 11 12 13 14 15 16 17 18 19
155
FTUS43 KLMK 182322
TAFBWG
TAF
KBWG 182322Z 1900/1924 VRB03KT P6SM VCSH BKN110
     FM190100 00000KT P6SM SCT110
     FM190800 00000KT 4SM BR SCT110
      TEMPO 1908/1912 1SM BR
     FM191300 21005KT P6SM VCSH BKN100
     FM191900 24006KT P6SM BKN100 PROB30 1919/1922 TS BKN050CB=

USA.gov is the U.S. government's official web portal to all federal, state and local government web resources and services.